sensor_id;sensor_type;location;lat;lon;timestamp;P1;durP1;ratioP1;P2;durP2;ratioP2
77085;SDS011;66014;53.134;18.006;2023-12-20T00:02:23;7.00;;;4.10;;
77085;SDS011;66014;53.134;18.006;2023-12-20T00:04:52;5.70;;;3.20;;
77085;SDS011;66014;53.134;18.006;2023-12-20T00:07:19;5.60;;;2.60;;
77085;SDS011;66014;53.134;18.006;2023-12-20T00:09:45;5.40;;;2.30;;
77085;SDS011;66014;53.134;18.006;2023-12-20T00:12:12;4.30;;;2.10;;
77085;SDS011;66014;53.134;18.006;2023-12-20T00:14:38;6.30;;;3.10;;
77085;SDS011;66014;53.134;18.006;2023-12-20T00:17:08;3.70;;;2.00;;
77085;SDS011;66014;53.134;18.006;2023-12-20T00:19:35;4.50;;;2.60;;
77085;SDS011;66014;53.134;18.006;2023-12-20T00:22:01;4.00;;;2.80;;
77085;SDS011;66014;53.134;18.006;2023-12-20T00:24:28;4.00;;;2.30;;
77085;SDS011;66014;53.134;18.006;2023-12-20T00:26:54;4.40;;;2.40;;
77085;SDS011;66014;53.134;18.006;2023-12-20T00:29:21;3.30;;;1.80;;
77085;SDS011;66014;53.134;18.006;2023-12-20T00:31:47;3.70;;;1.90;;
77085;SDS011;66014;53.134;18.006;2023-12-20T00:34:13;3.60;;;1.90;;
77085;SDS011;66014;53.134;18.006;2023-12-20T00:36:40;3.80;;;2.10;;
77085;SDS011;66014;53.134;18.006;2023-12-20T00:39:06;4.80;;;2.70;;
77085;SDS011;66014;53.134;18.006;2023-12-20T00:41:33;3.40;;;2.50;;
77085;SDS011;66014;53.134;18.006;2023-12-20T00:44:01;4.10;;;2.50;;
77085;SDS011;66014;53.134;18.006;2023-12-20T00:46:29;3.40;;;2.00;;
77085;SDS011;66014;53.134;18.006;2023-12-20T00:48:56;3.90;;;2.40;;
77085;SDS011;66014;53.134;18.006;2023-12-20T00:51:23;4.60;;;2.50;;
77085;SDS011;66014;53.134;18.006;2023-12-20T00:53:54;4.90;;;2.70;;
77085;SDS011;66014;53.134;18.006;2023-12-20T00:56:21;3.80;;;2.30;;
77085;SDS011;66014;53.134;18.006;2023-12-20T00:58:47;4.10;;;2.40;;
77085;SDS011;66014;53.134;18.006;2023-12-20T01:01:14;4.20;;;2.40;;
77085;SDS011;66014;53.134;18.006;2023-12-20T01:03:43;4.60;;;2.60;;
77085;SDS011;66014;53.134;18.006;2023-12-20T01:06:11;3.30;;;2.00;;
77085;SDS011;66014;53.134;18.006;2023-12-20T01:08:37;3.60;;;2.30;;
77085;SDS011;66014;53.134;18.006;2023-12-20T01:11:04;5.30;;;3.10;;
77085;SDS011;66014;53.134;18.006;2023-12-20T01:13:31;5.90;;;2.50;;
77085;SDS011;66014;53.134;18.006;2023-12-20T01:15:58;4.90;;;2.80;;
77085;SDS011;66014;53.134;18.006;2023-12-20T01:18:27;5.40;;;2.60;;
77085;SDS011;66014;53.134;18.006;2023-12-20T01:20:54;4.60;;;2.70;;
77085;SDS011;66014;53.134;18.006;2023-12-20T01:23:20;4.40;;;2.80;;
77085;SDS011;66014;53.134;18.006;2023-12-20T01:25:47;3.90;;;2.40;;
77085;SDS011;66014;53.134;18.006;2023-12-20T01:28:14;4.00;;;2.30;;
77085;SDS011;66014;53.134;18.006;2023-12-20T01:30:41;5.00;;;2.90;;
77085;SDS011;66014;53.134;18.006;2023-12-20T01:33:07;3.50;;;2.20;;
77085;SDS011;66014;53.134;18.006;2023-12-20T01:35:34;3.90;;;2.20;;
77085;SDS011;66014;53.134;18.006;2023-12-20T01:38:00;3.60;;;1.90;;
77085;SDS011;66014;53.134;18.006;2023-12-20T01:40:27;3.80;;;2.30;;
77085;SDS011;66014;53.134;18.006;2023-12-20T01:43:01;4.60;;;2.90;;
77085;SDS011;66014;53.134;18.006;2023-12-20T01:45:28;4.70;;;2.80;;
77085;SDS011;66014;53.134;18.006;2023-12-20T01:47:56;3.60;;;2.30;;
77085;SDS011;66014;53.134;18.006;2023-12-20T01:50:24;4.00;;;2.60;;
77085;SDS011;66014;53.134;18.006;2023-12-20T01:52:52;4.70;;;2.90;;
77085;SDS011;66014;53.134;18.006;2023-12-20T01:55:24;4.50;;;2.80;;
77085;SDS011;66014;53.134;18.006;2023-12-20T01:57:52;5.20;;;3.30;;
77085;SDS011;66014;53.134;18.006;2023-12-20T02:00:19;3.60;;;2.50;;
77085;SDS011;66014;53.134;18.006;2023-12-20T02:02:50;4.30;;;2.80;;
77085;SDS011;66014;53.134;18.006;2023-12-20T02:05:19;4.40;;;3.00;;
77085;SDS011;66014;53.134;18.006;2023-12-20T02:07:46;7.10;;;4.80;;
77085;SDS011;66014;53.134;18.006;2023-12-20T02:10:13;6.60;;;4.60;;
77085;SDS011;66014;53.134;18.006;2023-12-20T02:12:40;7.90;;;5.00;;
77085;SDS011;66014;53.134;18.006;2023-12-20T02:15:06;5.30;;;3.70;;
77085;SDS011;66014;53.134;18.006;2023-12-20T02:17:33;4.00;;;2.60;;
77085;SDS011;66014;53.134;18.006;2023-12-20T02:20:00;5.40;;;3.50;;
77085;SDS011;66014;53.134;18.006;2023-12-20T02:22:27;4.10;;;2.80;;
77085;SDS011;66014;53.134;18.006;2023-12-20T02:24:53;5.70;;;3.50;;
77085;SDS011;66014;53.134;18.006;2023-12-20T02:27:20;7.60;;;4.50;;
77085;SDS011;66014;53.134;18.006;2023-12-20T02:29:49;6.90;;;4.60;;
77085;SDS011;66014;53.134;18.006;2023-12-20T02:32:17;5.50;;;3.00;;
77085;SDS011;66014;53.134;18.006;2023-12-20T02:34:45;6.00;;;2.90;;
77085;SDS011;66014;53.134;18.006;2023-12-20T02:37:13;4.70;;;3.00;;
77085;SDS011;66014;53.134;18.006;2023-12-20T02:39:40;4.70;;;3.40;;
77085;SDS011;66014;53.134;18.006;2023-12-20T02:42:06;4.10;;;2.50;;
77085;SDS011;66014;53.134;18.006;2023-12-20T02:44:33;3.60;;;2.20;;
77085;SDS011;66014;53.134;18.006;2023-12-20T02:47:00;4.20;;;2.80;;
77085;SDS011;66014;53.134;18.006;2023-12-20T02:49:26;5.20;;;3.10;;
77085;SDS011;66014;53.134;18.006;2023-12-20T02:51:53;3.70;;;2.40;;
77085;SDS011;66014;53.134;18.006;2023-12-20T02:54:19;5.40;;;3.00;;
77085;SDS011;66014;53.134;18.006;2023-12-20T02:56:46;2.80;;;1.90;;
77085;SDS011;66014;53.134;18.006;2023-12-20T02:59:16;4.10;;;2.50;;
77085;SDS011;66014;53.134;18.006;2023-12-20T03:01:45;4.80;;;3.50;;
77085;SDS011;66014;53.134;18.006;2023-12-20T03:04:12;5.00;;;3.40;;
77085;SDS011;66014;53.134;18.006;2023-12-20T03:06:38;4.70;;;3.30;;
77085;SDS011;66014;53.134;18.006;2023-12-20T03:09:05;4.50;;;3.10;;
77085;SDS011;66014;53.134;18.006;2023-12-20T03:11:31;4.40;;;2.50;;
77085;SDS011;66014;53.134;18.006;2023-12-20T03:13:58;3.20;;;2.20;;
77085;SDS011;66014;53.134;18.006;2023-12-20T03:16:25;4.30;;;2.40;;
77085;SDS011;66014;53.134;18.006;2023-12-20T03:18:51;3.70;;;2.80;;
77085;SDS011;66014;53.134;18.006;2023-12-20T03:21:18;5.60;;;3.70;;
77085;SDS011;66014;53.134;18.006;2023-12-20T03:23:44;7.10;;;5.00;;
77085;SDS011;66014;53.134;18.006;2023-12-20T03:26:11;4.70;;;2.90;;
77085;SDS011;66014;53.134;18.006;2023-12-20T03:28:37;30.10;;;17.00;;
77085;SDS011;66014;53.134;18.006;2023-12-20T03:31:04;20.70;;;11.50;;
77085;SDS011;66014;53.134;18.006;2023-12-20T03:33:30;12.10;;;7.20;;
77085;SDS011;66014;53.134;18.006;2023-12-20T03:35:57;19.60;;;13.40;;
77085;SDS011;66014;53.134;18.006;2023-12-20T03:38:27;12.70;;;7.60;;
77085;SDS011;66014;53.134;18.006;2023-12-20T03:40:53;53.40;;;31.80;;
77085;SDS011;66014;53.134;18.006;2023-12-20T03:43:20;19.20;;;13.60;;
77085;SDS011;66014;53.134;18.006;2023-12-20T03:45:47;10.10;;;6.60;;
77085;SDS011;66014;53.134;18.006;2023-12-20T03:48:13;7.10;;;3.80;;
77085;SDS011;66014;53.134;18.006;2023-12-20T03:50:39;5.70;;;3.40;;
77085;SDS011;66014;53.134;18.006;2023-12-20T03:53:06;8.10;;;6.00;;
77085;SDS011;66014;53.134;18.006;2023-12-20T03:55:32;6.30;;;3.50;;
77085;SDS011;66014;53.134;18.006;2023-12-20T03:57:59;5.40;;;3.20;;
77085;SDS011;66014;53.134;18.006;2023-12-20T04:00:25;4.00;;;2.50;;
77085;SDS011;66014;53.134;18.006;2023-12-20T04:02:52;3.10;;;2.30;;
77085;SDS011;66014;53.134;18.006;2023-12-20T04:05:19;6.80;;;5.20;;
77085;SDS011;66014;53.134;18.006;2023-12-20T04:07:46;3.50;;;2.40;;
77085;SDS011;66014;53.134;18.006;2023-12-20T04:10:13;3.70;;;2.00;;
77085;SDS011;66014;53.134;18.006;2023-12-20T04:12:40;3.00;;;1.90;;
77085;SDS011;66014;53.134;18.006;2023-12-20T04:15:06;3.70;;;2.40;;
77085;SDS011;66014;53.134;18.006;2023-12-20T04:17:35;6.40;;;3.90;;
77085;SDS011;66014;53.134;18.006;2023-12-20T04:20:02;5.10;;;3.40;;
77085;SDS011;66014;53.134;18.006;2023-12-20T04:22:30;4.30;;;2.60;;
77085;SDS011;66014;53.134;18.006;2023-12-20T04:24:57;4.10;;;2.20;;
77085;SDS011;66014;53.134;18.006;2023-12-20T04:27:23;3.80;;;2.50;;
77085;SDS011;66014;53.134;18.006;2023-12-20T04:29:50;5.10;;;2.90;;
77085;SDS011;66014;53.134;18.006;2023-12-20T04:32:16;7.60;;;3.40;;
77085;SDS011;66014;53.134;18.006;2023-12-20T04:34:43;7.50;;;3.40;;
77085;SDS011;66014;53.134;18.006;2023-12-20T04:37:09;5.50;;;2.60;;
77085;SDS011;66014;53.134;18.006;2023-12-20T04:39:35;7.00;;;3.80;;
77085;SDS011;66014;53.134;18.006;2023-12-20T04:42:02;8.80;;;3.80;;
77085;SDS011;66014;53.134;18.006;2023-12-20T04:44:29;9.30;;;3.50;;
77085;SDS011;66014;53.134;18.006;2023-12-20T04:47:01;7.90;;;3.60;;
77085;SDS011;66014;53.134;18.006;2023-12-20T04:49:28;5.90;;;2.80;;
77085;SDS011;66014;53.134;18.006;2023-12-20T04:51:55;9.90;;;5.70;;
77085;SDS011;66014;53.134;18.006;2023-12-20T04:54:21;5.80;;;2.70;;
77085;SDS011;66014;53.134;18.006;2023-12-20T04:56:49;4.20;;;2.60;;
77085;SDS011;66014;53.134;18.006;2023-12-20T04:59:15;6.10;;;2.10;;
77085;SDS011;66014;53.134;18.006;2023-12-20T05:01:42;4.60;;;1.90;;
77085;SDS011;66014;53.134;18.006;2023-12-20T05:04:08;5.60;;;2.20;;
77085;SDS011;66014;53.134;18.006;2023-12-20T05:06:35;4.50;;;2.30;;
77085;SDS011;66014;53.134;18.006;2023-12-20T05:09:01;4.80;;;2.40;;
77085;SDS011;66014;53.134;18.006;2023-12-20T05:11:28;6.40;;;2.80;;
77085;SDS011;66014;53.134;18.006;2023-12-20T05:13:55;5.90;;;2.90;;
77085;SDS011;66014;53.134;18.006;2023-12-20T05:16:39;7.70;;;4.00;;
77085;SDS011;66014;53.134;18.006;2023-12-20T05:19:06;8.10;;;3.40;;
77085;SDS011;66014;53.134;18.006;2023-12-20T05:21:32;8.20;;;3.00;;
77085;SDS011;66014;53.134;18.006;2023-12-20T05:23:59;9.80;;;4.00;;
77085;SDS011;66014;53.134;18.006;2023-12-20T05:26:27;9.40;;;5.50;;
77085;SDS011;66014;53.134;18.006;2023-12-20T05:28:53;13.50;;;5.90;;
77085;SDS011;66014;53.134;18.006;2023-12-20T05:31:22;12.00;;;4.90;;
77085;SDS011;66014;53.134;18.006;2023-12-20T05:33:49;9.80;;;4.70;;
77085;SDS011;66014;53.134;18.006;2023-12-20T05:36:16;16.20;;;6.10;;
77085;SDS011;66014;53.134;18.006;2023-12-20T05:38:42;13.60;;;6.70;;
77085;SDS011;66014;53.134;18.006;2023-12-20T05:41:09;15.00;;;6.10;;
77085;SDS011;66014;53.134;18.006;2023-12-20T05:43:35;10.00;;;3.70;;
77085;SDS011;66014;53.134;18.006;2023-12-20T05:46:02;11.20;;;4.30;;
77085;SDS011;66014;53.134;18.006;2023-12-20T05:48:28;11.90;;;5.10;;
77085;SDS011;66014;53.134;18.006;2023-12-20T05:50:55;9.60;;;4.10;;
77085;SDS011;66014;53.134;18.006;2023-12-20T05:53:21;8.70;;;4.20;;
77085;SDS011;66014;53.134;18.006;2023-12-20T05:55:48;9.00;;;4.40;;
77085;SDS011;66014;53.134;18.006;2023-12-20T05:58:15;7.90;;;4.40;;
77085;SDS011;66014;53.134;18.006;2023-12-20T06:00:41;8.50;;;4.40;;
77085;SDS011;66014;53.134;18.006;2023-12-20T06:03:08;7.50;;;4.20;;
77085;SDS011;66014;53.134;18.006;2023-12-20T06:05:34;10.70;;;4.80;;
77085;SDS011;66014;53.134;18.006;2023-12-20T06:08:02;8.70;;;4.70;;
77085;SDS011;66014;53.134;18.006;2023-12-20T06:10:29;10.00;;;4.70;;
77085;SDS011;66014;53.134;18.006;2023-12-20T06:12:55;9.70;;;5.20;;
77085;SDS011;66014;53.134;18.006;2023-12-20T06:15:23;9.90;;;4.50;;
77085;SDS011;66014;53.134;18.006;2023-12-20T06:17:50;9.30;;;4.80;;
77085;SDS011;66014;53.134;18.006;2023-12-20T06:20:16;8.90;;;4.10;;
77085;SDS011;66014;53.134;18.006;2023-12-20T06:22:43;8.10;;;3.70;;
77085;SDS011;66014;53.134;18.006;2023-12-20T06:25:09;8.10;;;3.70;;
77085;SDS011;66014;53.134;18.006;2023-12-20T06:27:40;15.10;;;4.90;;
77085;SDS011;66014;53.134;18.006;2023-12-20T06:30:07;11.50;;;5.10;;
77085;SDS011;66014;53.134;18.006;2023-12-20T06:32:37;17.10;;;7.40;;
77085;SDS011;66014;53.134;18.006;2023-12-20T06:35:08;17.80;;;7.30;;
77085;SDS011;66014;53.134;18.006;2023-12-20T06:37:45;15.90;;;7.90;;
77085;SDS011;66014;53.134;18.006;2023-12-20T06:40:12;11.50;;;5.80;;
77085;SDS011;66014;53.134;18.006;2023-12-20T06:42:38;14.40;;;6.90;;
77085;SDS011;66014;53.134;18.006;2023-12-20T06:45:05;17.60;;;8.40;;
77085;SDS011;66014;53.134;18.006;2023-12-20T06:47:31;17.30;;;8.20;;
77085;SDS011;66014;53.134;18.006;2023-12-20T06:49:58;18.90;;;9.10;;
77085;SDS011;66014;53.134;18.006;2023-12-20T06:52:28;19.40;;;9.30;;
77085;SDS011;66014;53.134;18.006;2023-12-20T06:55:13;17.00;;;8.00;;
77085;SDS011;66014;53.134;18.006;2023-12-20T06:57:42;21.70;;;8.80;;
77085;SDS011;66014;53.134;18.006;2023-12-20T07:00:10;20.10;;;8.20;;
77085;SDS011;66014;53.134;18.006;2023-12-20T07:02:37;14.70;;;6.60;;
77085;SDS011;66014;53.134;18.006;2023-12-20T07:05:04;15.20;;;6.80;;
77085;SDS011;66014;53.134;18.006;2023-12-20T07:07:32;14.30;;;7.00;;
77085;SDS011;66014;53.134;18.006;2023-12-20T07:10:04;16.80;;;8.30;;
77085;SDS011;66014;53.134;18.006;2023-12-20T07:12:31;16.10;;;9.10;;
77085;SDS011;66014;53.134;18.006;2023-12-20T07:14:58;20.80;;;9.50;;
77085;SDS011;66014;53.134;18.006;2023-12-20T07:17:24;23.70;;;11.90;;
77085;SDS011;66014;53.134;18.006;2023-12-20T07:19:51;20.80;;;10.00;;
77085;SDS011;66014;53.134;18.006;2023-12-20T07:22:17;18.80;;;9.40;;
77085;SDS011;66014;53.134;18.006;2023-12-20T07:24:44;19.20;;;9.50;;
77085;SDS011;66014;53.134;18.006;2023-12-20T07:27:27;9.40;;;4.90;;
77085;SDS011;66014;53.134;18.006;2023-12-20T07:29:54;10.70;;;5.20;;
77085;SDS011;66014;53.134;18.006;2023-12-20T07:32:20;12.60;;;6.10;;
77085;SDS011;66014;53.134;18.006;2023-12-20T07:34:47;11.80;;;5.70;;
77085;SDS011;66014;53.134;18.006;2023-12-20T07:37:15;16.10;;;6.20;;
77085;SDS011;66014;53.134;18.006;2023-12-20T07:39:41;8.90;;;4.70;;
77085;SDS011;66014;53.134;18.006;2023-12-20T07:42:08;13.50;;;5.80;;
77085;SDS011;66014;53.134;18.006;2023-12-20T07:44:36;11.30;;;5.10;;
77085;SDS011;66014;53.134;18.006;2023-12-20T07:47:05;10.80;;;4.00;;
77085;SDS011;66014;53.134;18.006;2023-12-20T07:49:32;65.20;;;22.00;;
77085;SDS011;66014;53.134;18.006;2023-12-20T07:51:59;66.60;;;25.10;;
77085;SDS011;66014;53.134;18.006;2023-12-20T07:54:25;37.60;;;13.40;;
77085;SDS011;66014;53.134;18.006;2023-12-20T07:56:52;26.60;;;11.00;;
77085;SDS011;66014;53.134;18.006;2023-12-20T07:59:19;16.40;;;7.30;;
77085;SDS011;66014;53.134;18.006;2023-12-20T08:01:45;11.30;;;5.60;;
77085;SDS011;66014;53.134;18.006;2023-12-20T08:04:12;38.40;;;17.80;;
77085;SDS011;66014;53.134;18.006;2023-12-20T08:06:38;30.30;;;16.50;;
77085;SDS011;66014;53.134;18.006;2023-12-20T08:09:05;27.10;;;15.80;;
77085;SDS011;66014;53.134;18.006;2023-12-20T08:11:31;14.50;;;5.90;;
77085;SDS011;66014;53.134;18.006;2023-12-20T08:13:58;11.60;;;7.40;;
77085;SDS011;66014;53.134;18.006;2023-12-20T08:16:24;14.40;;;7.90;;
77085;SDS011;66014;53.134;18.006;2023-12-20T08:18:52;16.40;;;6.20;;
77085;SDS011;66014;53.134;18.006;2023-12-20T08:21:19;36.90;;;21.60;;
77085;SDS011;66014;53.134;18.006;2023-12-20T08:23:48;11.40;;;6.50;;
77085;SDS011;66014;53.134;18.006;2023-12-20T08:26:18;11.80;;;5.70;;
77085;SDS011;66014;53.134;18.006;2023-12-20T08:28:46;12.10;;;6.50;;
77085;SDS011;66014;53.134;18.006;2023-12-20T08:31:22;19.30;;;8.30;;
77085;SDS011;66014;53.134;18.006;2023-12-20T08:33:49;20.00;;;8.00;;
77085;SDS011;66014;53.134;18.006;2023-12-20T08:36:15;17.60;;;8.10;;
77085;SDS011;66014;53.134;18.006;2023-12-20T08:38:44;17.10;;;7.60;;
77085;SDS011;66014;53.134;18.006;2023-12-20T08:41:10;18.60;;;8.50;;
77085;SDS011;66014;53.134;18.006;2023-12-20T08:43:38;16.60;;;7.00;;
77085;SDS011;66014;53.134;18.006;2023-12-20T08:46:08;15.20;;;6.20;;
77085;SDS011;66014;53.134;18.006;2023-12-20T08:48:49;13.80;;;5.00;;
77085;SDS011;66014;53.134;18.006;2023-12-20T08:51:18;15.50;;;5.70;;
77085;SDS011;66014;53.134;18.006;2023-12-20T08:53:46;12.80;;;5.00;;
77085;SDS011;66014;53.134;18.006;2023-12-20T08:56:13;13.90;;;5.20;;
77085;SDS011;66014;53.134;18.006;2023-12-20T08:58:40;22.40;;;8.60;;
77085;SDS011;66014;53.134;18.006;2023-12-20T09:01:07;17.90;;;7.00;;
77085;SDS011;66014;53.134;18.006;2023-12-20T09:03:33;21.20;;;7.30;;
77085;SDS011;66014;53.134;18.006;2023-12-20T09:06:00;26.60;;;9.30;;
77085;SDS011;66014;53.134;18.006;2023-12-20T09:08:26;15.40;;;6.20;;
77085;SDS011;66014;53.134;18.006;2023-12-20T09:10:53;26.10;;;9.70;;
77085;SDS011;66014;53.134;18.006;2023-12-20T09:13:19;17.20;;;5.70;;
77085;SDS011;66014;53.134;18.006;2023-12-20T09:15:46;11.10;;;4.50;;
77085;SDS011;66014;53.134;18.006;2023-12-20T09:18:13;15.10;;;5.80;;
77085;SDS011;66014;53.134;18.006;2023-12-20T09:20:39;14.20;;;6.80;;
77085;SDS011;66014;53.134;18.006;2023-12-20T09:23:06;25.80;;;11.70;;
77085;SDS011;66014;53.134;18.006;2023-12-20T09:25:32;21.70;;;8.90;;
77085;SDS011;66014;53.134;18.006;2023-12-20T09:27:59;17.80;;;9.70;;
77085;SDS011;66014;53.134;18.006;2023-12-20T09:30:26;18.10;;;7.00;;
77085;SDS011;66014;53.134;18.006;2023-12-20T09:32:52;14.50;;;6.80;;
77085;SDS011;66014;53.134;18.006;2023-12-20T09:35:23;34.80;;;14.70;;
77085;SDS011;66014;53.134;18.006;2023-12-20T09:37:50;22.80;;;10.80;;
77085;SDS011;66014;53.134;18.006;2023-12-20T09:40:19;19.50;;;8.10;;
77085;SDS011;66014;53.134;18.006;2023-12-20T09:45:24;19.70;;;9.20;;
77085;SDS011;66014;53.134;18.006;2023-12-20T09:47:54;21.40;;;9.70;;
77085;SDS011;66014;53.134;18.006;2023-12-20T09:50:21;18.80;;;8.90;;
77085;SDS011;66014;53.134;18.006;2023-12-20T09:52:51;19.20;;;8.00;;
77085;SDS011;66014;53.134;18.006;2023-12-20T09:55:21;18.50;;;8.80;;
77085;SDS011;66014;53.134;18.006;2023-12-20T09:57:48;18.90;;;6.70;;
77085;SDS011;66014;53.134;18.006;2023-12-20T10:00:19;22.40;;;7.90;;
77085;SDS011;66014;53.134;18.006;2023-12-20T10:02:58;15.20;;;5.80;;
77085;SDS011;66014;53.134;18.006;2023-12-20T10:08:20;14.80;;;4.80;;
77085;SDS011;66014;53.134;18.006;2023-12-20T10:11:13;12.60;;;4.30;;
77085;SDS011;66014;53.134;18.006;2023-12-20T10:13:40;8.50;;;3.90;;
77085;SDS011;66014;53.134;18.006;2023-12-20T10:16:07;9.10;;;4.00;;
77085;SDS011;66014;53.134;18.006;2023-12-20T10:18:33;24.80;;;9.80;;
77085;SDS011;66014;53.134;18.006;2023-12-20T10:21:00;13.50;;;5.60;;
77085;SDS011;66014;53.134;18.006;2023-12-20T10:23:27;10.90;;;4.40;;
77085;SDS011;66014;53.134;18.006;2023-12-20T10:25:57;8.80;;;3.60;;
77085;SDS011;66014;53.134;18.006;2023-12-20T10:30:54;13.20;;;6.30;;
77085;SDS011;66014;53.134;18.006;2023-12-20T10:33:26;12.80;;;5.40;;
77085;SDS011;66014;53.134;18.006;2023-12-20T10:35:55;18.00;;;6.20;;
77085;SDS011;66014;53.134;18.006;2023-12-20T10:38:36;12.00;;;5.10;;
77085;SDS011;66014;53.134;18.006;2023-12-20T10:41:45;10.80;;;4.40;;
77085;SDS011;66014;53.134;18.006;2023-12-20T10:51:31;11.80;;;4.50;;
77085;SDS011;66014;53.134;18.006;2023-12-20T10:54:00;10.20;;;4.20;;
77085;SDS011;66014;53.134;18.006;2023-12-20T10:56:27;11.50;;;3.80;;
77085;SDS011;66014;53.134;18.006;2023-12-20T10:58:58;9.20;;;3.30;;
77085;SDS011;66014;53.134;18.006;2023-12-20T11:01:30;6.90;;;2.40;;
77085;SDS011;66014;53.134;18.006;2023-12-20T11:03:57;5.00;;;2.70;;
77085;SDS011;66014;53.134;18.006;2023-12-20T11:14:27;7.10;;;2.90;;
77085;SDS011;66014;53.134;18.006;2023-12-20T11:17:07;7.10;;;2.80;;
77085;SDS011;66014;53.134;18.006;2023-12-20T11:22:24;8.60;;;2.50;;
77085;SDS011;66014;53.134;18.006;2023-12-20T11:24:52;6.00;;;2.60;;
77085;SDS011;66014;53.134;18.006;2023-12-20T11:27:25;8.30;;;3.10;;
77085;SDS011;66014;53.134;18.006;2023-12-20T11:29:53;10.00;;;4.80;;
77085;SDS011;66014;53.134;18.006;2023-12-20T11:34:53;9.00;;;3.70;;
77085;SDS011;66014;53.134;18.006;2023-12-20T11:37:20;6.70;;;3.00;;
77085;SDS011;66014;53.134;18.006;2023-12-20T11:40:00;10.20;;;3.00;;
77085;SDS011;66014;53.134;18.006;2023-12-20T11:42:28;14.10;;;4.30;;
77085;SDS011;66014;53.134;18.006;2023-12-20T11:44:59;10.40;;;4.20;;
77085;SDS011;66014;53.134;18.006;2023-12-20T11:47:30;12.90;;;4.50;;
77085;SDS011;66014;53.134;18.006;2023-12-20T11:49:57;8.20;;;3.40;;
77085;SDS011;66014;53.134;18.006;2023-12-20T11:52:24;11.20;;;4.40;;
77085;SDS011;66014;53.134;18.006;2023-12-20T11:54:50;18.20;;;6.90;;
77085;SDS011;66014;53.134;18.006;2023-12-20T11:57:17;19.70;;;6.60;;
77085;SDS011;66014;53.134;18.006;2023-12-20T11:59:43;24.10;;;9.90;;
77085;SDS011;66014;53.134;18.006;2023-12-20T12:02:11;13.30;;;6.20;;
77085;SDS011;66014;53.134;18.006;2023-12-20T12:04:38;11.60;;;5.30;;
77085;SDS011;66014;53.134;18.006;2023-12-20T12:07:07;8.40;;;3.20;;
77085;SDS011;66014;53.134;18.006;2023-12-20T12:09:34;6.30;;;2.90;;
77085;SDS011;66014;53.134;18.006;2023-12-20T12:12:01;6.70;;;2.90;;
77085;SDS011;66014;53.134;18.006;2023-12-20T12:14:28;6.90;;;2.90;;
77085;SDS011;66014;53.134;18.006;2023-12-20T12:16:54;6.50;;;2.60;;
77085;SDS011;66014;53.134;18.006;2023-12-20T12:19:22;9.00;;;3.10;;
77085;SDS011;66014;53.134;18.006;2023-12-20T12:21:50;5.70;;;3.20;;
77085;SDS011;66014;53.134;18.006;2023-12-20T12:24:33;8.30;;;3.20;;
77085;SDS011;66014;53.134;18.006;2023-12-20T12:27:00;9.40;;;3.50;;
77085;SDS011;66014;53.134;18.006;2023-12-20T12:29:27;7.00;;;2.60;;
77085;SDS011;66014;53.134;18.006;2023-12-20T12:31:54;7.10;;;3.50;;
77085;SDS011;66014;53.134;18.006;2023-12-20T12:34:21;10.20;;;4.10;;
77085;SDS011;66014;53.134;18.006;2023-12-20T12:36:48;8.10;;;4.20;;
77085;SDS011;66014;53.134;18.006;2023-12-20T12:39:15;12.60;;;3.80;;
77085;SDS011;66014;53.134;18.006;2023-12-20T12:41:43;6.00;;;2.50;;
77085;SDS011;66014;53.134;18.006;2023-12-20T12:44:10;5.30;;;3.10;;
77085;SDS011;66014;53.134;18.006;2023-12-20T12:46:36;10.60;;;5.30;;
77085;SDS011;66014;53.134;18.006;2023-12-20T12:49:03;9.40;;;3.80;;
77085;SDS011;66014;53.134;18.006;2023-12-20T12:51:30;8.90;;;3.50;;
77085;SDS011;66014;53.134;18.006;2023-12-20T12:53:57;7.60;;;3.90;;
77085;SDS011;66014;53.134;18.006;2023-12-20T12:56:24;9.30;;;3.60;;
77085;SDS011;66014;53.134;18.006;2023-12-20T12:58:50;5.10;;;3.30;;
77085;SDS011;66014;53.134;18.006;2023-12-20T13:01:17;8.00;;;3.80;;
77085;SDS011;66014;53.134;18.006;2023-12-20T13:03:43;7.40;;;2.60;;
77085;SDS011;66014;53.134;18.006;2023-12-20T13:06:10;6.00;;;2.90;;
77085;SDS011;66014;53.134;18.006;2023-12-20T13:08:36;7.40;;;4.00;;
77085;SDS011;66014;53.134;18.006;2023-12-20T13:11:03;11.10;;;4.90;;
77085;SDS011;66014;53.134;18.006;2023-12-20T13:13:30;14.40;;;6.70;;
77085;SDS011;66014;53.134;18.006;2023-12-20T13:15:57;15.20;;;6.30;;
77085;SDS011;66014;53.134;18.006;2023-12-20T13:18:24;9.10;;;4.60;;
77085;SDS011;66014;53.134;18.006;2023-12-20T13:20:50;11.20;;;4.70;;
77085;SDS011;66014;53.134;18.006;2023-12-20T13:23:17;10.00;;;4.30;;
77085;SDS011;66014;53.134;18.006;2023-12-20T13:25:44;10.00;;;4.90;;
77085;SDS011;66014;53.134;18.006;2023-12-20T13:28:12;9.90;;;3.30;;
77085;SDS011;66014;53.134;18.006;2023-12-20T13:30:39;9.10;;;3.30;;
77085;SDS011;66014;53.134;18.006;2023-12-20T13:33:06;9.70;;;4.00;;
77085;SDS011;66014;53.134;18.006;2023-12-20T13:35:33;3.50;;;2.00;;
77085;SDS011;66014;53.134;18.006;2023-12-20T13:38:00;5.30;;;2.30;;
77085;SDS011;66014;53.134;18.006;2023-12-20T13:40:27;8.50;;;3.10;;
77085;SDS011;66014;53.134;18.006;2023-12-20T13:42:54;7.60;;;2.60;;
77085;SDS011;66014;53.134;18.006;2023-12-20T13:45:21;6.90;;;2.50;;
77085;SDS011;66014;53.134;18.006;2023-12-20T13:47:48;9.90;;;4.20;;
77085;SDS011;66014;53.134;18.006;2023-12-20T13:50:15;9.50;;;4.20;;
77085;SDS011;66014;53.134;18.006;2023-12-20T13:52:42;8.40;;;3.10;;
77085;SDS011;66014;53.134;18.006;2023-12-20T13:55:08;7.30;;;3.10;;
77085;SDS011;66014;53.134;18.006;2023-12-20T13:57:35;8.00;;;4.10;;
77085;SDS011;66014;53.134;18.006;2023-12-20T14:00:04;8.20;;;4.00;;
77085;SDS011;66014;53.134;18.006;2023-12-20T14:02:31;8.80;;;4.00;;
77085;SDS011;66014;53.134;18.006;2023-12-20T14:04:57;28.70;;;19.60;;
77085;SDS011;66014;53.134;18.006;2023-12-20T14:07:24;11.20;;;7.00;;
77085;SDS011;66014;53.134;18.006;2023-12-20T14:09:51;13.00;;;5.10;;
77085;SDS011;66014;53.134;18.006;2023-12-20T14:12:17;12.70;;;5.60;;
77085;SDS011;66014;53.134;18.006;2023-12-20T14:14:44;12.90;;;5.80;;
77085;SDS011;66014;53.134;18.006;2023-12-20T14:17:11;16.20;;;5.80;;
77085;SDS011;66014;53.134;18.006;2023-12-20T14:19:37;13.80;;;6.10;;
77085;SDS011;66014;53.134;18.006;2023-12-20T14:22:04;11.60;;;4.00;;
77085;SDS011;66014;53.134;18.006;2023-12-20T14:24:30;80.00;;;38.00;;
77085;SDS011;66014;53.134;18.006;2023-12-20T14:26:57;33.90;;;18.20;;
77085;SDS011;66014;53.134;18.006;2023-12-20T14:29:24;23.40;;;14.70;;
77085;SDS011;66014;53.134;18.006;2023-12-20T14:31:51;18.90;;;11.20;;
77085;SDS011;66014;53.134;18.006;2023-12-20T14:34:18;10.70;;;5.10;;
77085;SDS011;66014;53.134;18.006;2023-12-20T14:36:44;10.90;;;5.60;;
77085;SDS011;66014;53.134;18.006;2023-12-20T14:39:11;12.70;;;6.50;;
77085;SDS011;66014;53.134;18.006;2023-12-20T14:41:39;10.90;;;4.60;;
77085;SDS011;66014;53.134;18.006;2023-12-20T14:44:08;14.70;;;4.80;;
77085;SDS011;66014;53.134;18.006;2023-12-20T14:46:35;14.10;;;5.10;;
77085;SDS011;66014;53.134;18.006;2023-12-20T14:49:01;10.20;;;4.10;;
77085;SDS011;66014;53.134;18.006;2023-12-20T14:51:29;6.90;;;3.60;;
77085;SDS011;66014;53.134;18.006;2023-12-20T14:53:55;13.80;;;4.10;;
77085;SDS011;66014;53.134;18.006;2023-12-20T14:56:25;14.50;;;4.50;;
77085;SDS011;66014;53.134;18.006;2023-12-20T14:58:52;11.40;;;3.30;;
77085;SDS011;66014;53.134;18.006;2023-12-20T15:01:19;14.50;;;4.70;;